Current Conditions
Scattered
Clouds



Pressure
29.87 (inHG) - 1011.52 (mb)
Visibility

9.9 (miles) - 16.0 (km)
Temperature
36  °F
Temperature
23  °F
Dewpoint
60  %
 Humidity
Wind Speed
7  mph
6  kts
11  km/h
3.1  m/s
Wind Direction
N
45°
E
90°
135°
S
180°
225°
W
270°
315°
 230°

South West
Airport Data
KAVP
Wilkes Barre Scranton International Airport
Metar :KAVP 081902Z 23006KT 10SM SCT029 BKN037 OVC048 02/M05 A2987 RMK AO2 T00171050
Wed 8th December 14:02 pm
Raw Metar Info
Raw METAR is the most common format in the world for the transmission of observational weather data. It is highly standardized through the International Civil Aviation Organization (ICAO), which allows it to be understood throughout most of the world.
API Info
Data Provided by
https://www.checkwx.com/weather/KAVP

Aviation Weather providing METAR, TAF, AIRMET, SIGMET and OUTLOOK Weather Reports
© Info
CSS/SVG/PHP scripts were developed by weather34.com for use in the weather34 template © 2015-2021

Guide Info provided by Metar-Wikipedia